createdAt,value
2023-05-24T00:01:26.964Z,21.69
2023-05-24T00:03:59.338Z,21.67
2023-05-24T00:06:30.857Z,21.64
2023-05-24T00:09:02.477Z,21.63
2023-05-24T00:11:33.568Z,21.63
2023-05-24T00:14:04.884Z,21.62
2023-05-24T00:16:36.962Z,21.61
2023-05-24T00:19:11.467Z,21.59
2023-05-24T00:21:42.503Z,21.57
2023-05-24T00:24:13.791Z,21.55
2023-05-24T00:26:44.809Z,21.53
2023-05-24T00:29:15.977Z,21.52
2023-05-24T00:31:47.034Z,21.51
2023-05-24T00:34:18.367Z,21.49
2023-05-24T00:36:49.525Z,21.48
2023-05-24T00:39:20.948Z,21.46
2023-05-24T00:41:52.007Z,21.44
2023-05-24T00:44:23.273Z,21.43
2023-05-24T00:46:55.131Z,21.41
2023-05-24T00:49:26.729Z,21.40
2023-05-24T00:51:58.006Z,21.38
2023-05-24T00:54:29.694Z,21.37
2023-05-24T00:57:01.934Z,21.36
2023-05-24T00:59:34.088Z,21.36
2023-05-24T01:02:05.339Z,21.34
2023-05-24T01:04:38.178Z,21.33
2023-05-24T01:07:23.608Z,21.33
2023-05-24T01:10:05.882Z,21.33
2023-05-24T01:12:48.326Z,21.34
2023-05-24T01:15:25.834Z,21.34
2023-05-24T01:18:17.543Z,21.34
2023-05-24T01:20:50.889Z,21.34
2023-05-24T01:23:42.045Z,21.33
2023-05-24T01:26:33.579Z,21.33
2023-05-24T01:29:06.138Z,21.33
2023-05-24T01:31:39.045Z,21.33
2023-05-24T01:34:10.581Z,21.33
2023-05-24T01:36:41.799Z,21.32
2023-05-24T01:39:13.914Z,21.32
2023-05-24T01:41:53.369Z,21.31
2023-05-24T01:44:30.514Z,21.30
2023-05-24T01:47:10.395Z,21.28
2023-05-24T01:49:49.471Z,21.28
2023-05-24T01:52:24.360Z,21.28
2023-05-24T01:54:59.551Z,21.27
2023-05-24T01:57:31.896Z,21.25
2023-05-24T02:00:04.724Z,21.23
2023-05-24T02:02:43.651Z,21.21
2023-05-24T02:05:15.128Z,21.18
2023-05-24T02:07:46.249Z,21.18
2023-05-24T02:10:17.377Z,21.16
2023-05-24T02:12:49.297Z,21.16
2023-05-24T02:15:20.882Z,21.15
2023-05-24T02:17:54.834Z,21.16
2023-05-24T02:20:26.562Z,21.15
2023-05-24T02:22:57.838Z,21.13
2023-05-24T02:25:31.803Z,21.10
2023-05-24T02:28:03.011Z,21.09
2023-05-24T02:30:34.914Z,21.06
2023-05-24T02:33:06.334Z,21.04
2023-05-24T02:35:37.944Z,21.02
2023-05-24T02:38:09.850Z,21.02
2023-05-24T02:40:41.218Z,21.00
2023-05-24T02:43:12.359Z,20.98
2023-05-24T02:45:45.993Z,20.98
2023-05-24T02:48:17.316Z,20.97
2023-05-24T02:50:48.611Z,20.98
2023-05-24T02:53:19.564Z,20.98
2023-05-24T02:55:51.476Z,20.97
2023-05-24T02:58:23.117Z,20.97
2023-05-24T03:00:54.663Z,20.96
2023-05-24T03:03:26.125Z,20.95
2023-05-24T03:05:57.362Z,20.95
2023-05-24T03:08:28.224Z,20.95
2023-05-24T03:10:59.348Z,20.96
2023-05-24T03:13:30.225Z,20.96
2023-05-24T03:16:01.478Z,20.96
2023-05-24T03:18:34.308Z,20.94
2023-05-24T03:21:06.114Z,20.93
2023-05-24T03:23:38.338Z,20.92
2023-05-24T03:26:09.703Z,20.90
2023-05-24T03:28:42.071Z,20.90
2023-05-24T03:31:13.901Z,20.89
2023-05-24T03:33:45.272Z,20.88
2023-05-24T03:36:16.770Z,20.89
2023-05-24T03:38:47.902Z,20.88
2023-05-24T03:41:19.456Z,20.88
2023-05-24T03:43:50.553Z,20.88
2023-05-24T03:46:22.474Z,20.87
2023-05-24T03:48:53.551Z,20.87
2023-05-24T03:51:29.497Z,20.86
2023-05-24T03:54:00.985Z,20.84
2023-05-24T03:56:32.059Z,20.81
2023-05-24T03:59:04.510Z,20.81
2023-05-24T04:01:37.512Z,20.80
2023-05-24T04:04:08.747Z,20.80
2023-05-24T04:06:41.925Z,20.80
2023-05-24T04:09:13.712Z,20.79
2023-05-24T04:11:44.903Z,20.79
2023-05-24T04:14:16.033Z,20.80
2023-05-24T04:16:47.603Z,20.80
2023-05-24T04:19:18.904Z,20.82
2023-05-24T04:21:50.824Z,20.85
2023-05-24T04:24:22.063Z,20.93
2023-05-24T04:26:53.526Z,21.00
2023-05-24T04:29:26.818Z,21.06
2023-05-24T04:31:57.759Z,21.10
2023-05-24T04:34:30.229Z,21.16
2023-05-24T04:37:02.450Z,21.23
2023-05-24T04:39:33.978Z,21.30
2023-05-24T04:42:05.132Z,21.36
2023-05-24T04:44:36.434Z,21.43
2023-05-24T04:47:08.933Z,21.49
2023-05-24T04:49:40.064Z,21.54
2023-05-24T04:52:11.610Z,21.60
2023-05-24T04:54:43.027Z,21.69
2023-05-24T04:57:14.292Z,21.77
2023-05-24T04:59:45.597Z,21.85
2023-05-24T05:02:16.828Z,21.90
2023-05-24T05:04:47.955Z,21.95
2023-05-24T05:07:19.055Z,21.97
2023-05-24T05:09:50.610Z,22.01
2023-05-24T05:12:21.609Z,22.04
2023-05-24T05:14:52.819Z,22.05
2023-05-24T05:17:24.037Z,22.07
2023-05-24T05:19:55.441Z,22.08
2023-05-24T05:22:26.465Z,22.10
2023-05-24T05:24:57.667Z,22.12
2023-05-24T05:27:28.527Z,22.14
2023-05-24T05:30:00.088Z,22.13
2023-05-24T05:32:31.306Z,22.03
2023-05-24T05:35:02.544Z,21.98
2023-05-24T05:37:33.702Z,21.89
2023-05-24T05:40:05.209Z,21.87
2023-05-24T05:42:36.189Z,21.96
2023-05-24T05:45:09.385Z,22.07
2023-05-24T05:47:40.937Z,22.12
2023-05-24T05:50:13.397Z,22.16
2023-05-24T05:52:44.444Z,22.17
2023-05-24T05:55:15.525Z,22.14
2023-05-24T05:57:46.488Z,22.15
2023-05-24T06:00:19.656Z,22.16
2023-05-24T06:02:51.019Z,22.15
2023-05-24T06:05:22.845Z,22.08
2023-05-24T06:07:53.728Z,22.01
2023-05-24T06:10:25.315Z,21.95
2023-05-24T06:12:56.219Z,21.90
2023-05-24T06:15:27.460Z,21.86
2023-05-24T06:17:58.311Z,21.85
2023-05-24T06:20:29.855Z,21.85
2023-05-24T06:23:01.637Z,21.87
2023-05-24T06:25:33.300Z,21.93
2023-05-24T06:28:04.666Z,21.96
2023-05-24T06:30:36.091Z,21.99
2023-05-24T06:33:07.907Z,22.02
2023-05-24T06:35:38.913Z,22.02
2023-05-24T06:38:10.242Z,21.98
2023-05-24T06:40:41.844Z,21.98
2023-05-24T06:43:13.343Z,22.01
2023-05-24T06:45:45.205Z,22.04
2023-05-24T06:48:16.996Z,22.07
2023-05-24T06:50:48.454Z,22.09
2023-05-24T06:53:19.614Z,22.14
2023-05-24T06:55:50.964Z,22.21
2023-05-24T06:58:22.975Z,22.29
2023-05-24T07:00:54.353Z,22.34
2023-05-24T07:03:25.853Z,22.40
2023-05-24T07:05:57.174Z,22.44
2023-05-24T07:08:28.911Z,22.41
2023-05-24T07:11:00.256Z,22.44
2023-05-24T07:13:31.167Z,22.48
2023-05-24T07:16:02.316Z,22.52
2023-05-24T07:18:33.496Z,22.58
2023-05-24T07:21:04.855Z,22.64
2023-05-24T07:23:37.096Z,22.71
2023-05-24T07:26:09.255Z,22.78
2023-05-24T07:28:40.784Z,22.82
2023-05-24T07:31:13.691Z,22.84
2023-05-24T07:33:45.013Z,22.86
2023-05-24T07:36:16.441Z,22.87
2023-05-24T07:38:47.241Z,22.90
2023-05-24T07:41:18.391Z,22.91
2023-05-24T07:43:49.685Z,22.91
2023-05-24T07:46:21.636Z,22.89
2023-05-24T07:48:53.259Z,22.89
2023-05-24T07:51:24.610Z,22.90
2023-05-24T07:53:56.045Z,22.92
2023-05-24T07:56:27.161Z,22.94
2023-05-24T07:59:03.798Z,22.96
2023-05-24T08:01:36.842Z,23.00
2023-05-24T08:04:08.968Z,23.02
2023-05-24T08:06:40.409Z,23.06
2023-05-24T08:09:12.536Z,23.10
2023-05-24T08:11:43.840Z,23.14
2023-05-24T08:14:14.960Z,23.18
2023-05-24T08:16:46.431Z,23.23
2023-05-24T08:19:17.668Z,23.27
2023-05-24T08:21:48.712Z,23.32
2023-05-24T08:24:21.105Z,23.36
2023-05-24T08:26:54.264Z,23.41
2023-05-24T08:29:25.571Z,23.44
2023-05-24T08:31:56.705Z,23.47
2023-05-24T08:34:28.579Z,23.54
2023-05-24T08:36:59.498Z,23.58
2023-05-24T08:39:31.181Z,23.61
2023-05-24T08:44:48.755Z,23.67
2023-05-24T08:47:21.221Z,23.69
2023-05-24T08:49:55.049Z,23.72
2023-05-24T08:52:27.000Z,23.76
2023-05-24T08:54:59.858Z,23.81
2023-05-24T08:57:32.869Z,23.85
2023-05-24T09:00:04.684Z,23.88
2023-05-24T09:02:36.504Z,23.91
2023-05-24T09:05:10.925Z,23.96
2023-05-24T09:07:43.273Z,24.01
2023-05-24T09:10:14.666Z,24.07
2023-05-24T09:12:49.949Z,24.12
2023-05-24T09:15:21.236Z,24.14
2023-05-24T09:17:52.502Z,24.14
2023-05-24T09:20:24.618Z,24.14
2023-05-24T09:22:57.563Z,24.17
2023-05-24T09:25:30.722Z,24.19
2023-05-24T09:28:06.749Z,24.19
2023-05-24T09:30:37.720Z,24.20
2023-05-24T09:33:11.396Z,24.20
2023-05-24T09:35:44.813Z,24.24
2023-05-24T09:38:20.800Z,24.26
2023-05-24T09:41:01.214Z,24.29
2023-05-24T09:43:32.967Z,24.33
2023-05-24T09:46:06.063Z,24.38
2023-05-24T09:48:37.415Z,24.43
2023-05-24T09:51:10.423Z,24.48
2023-05-24T09:53:47.058Z,24.51
2023-05-24T09:56:18.107Z,24.56
2023-05-24T09:58:49.276Z,24.59
2023-05-24T10:01:24.345Z,24.60
2023-05-24T10:04:00.675Z,24.63
2023-05-24T10:06:33.193Z,24.68
2023-05-24T10:09:07.061Z,24.73
2023-05-24T10:11:38.283Z,24.79
2023-05-24T10:14:10.837Z,24.82
2023-05-24T10:16:41.743Z,24.86
2023-05-24T10:19:13.234Z,24.92
2023-05-24T10:21:45.199Z,24.98
2023-05-24T10:24:19.359Z,25.04
2023-05-24T10:26:51.664Z,25.10
2023-05-24T10:29:36.321Z,25.14
2023-05-24T10:32:09.304Z,25.19
2023-05-24T10:34:42.635Z,25.23
2023-05-24T10:37:15.046Z,25.26
2023-05-24T10:39:46.759Z,25.32
2023-05-24T10:42:18.163Z,25.39
2023-05-24T10:44:49.058Z,25.40
2023-05-24T10:47:23.149Z,25.40
2023-05-24T10:49:57.939Z,25.41
2023-05-24T10:52:38.614Z,25.39
2023-05-24T10:55:12.050Z,25.37
2023-05-24T10:57:43.801Z,25.35
2023-05-24T11:00:36.006Z,25.36
2023-05-24T11:03:11.270Z,25.34
2023-05-24T11:05:55.503Z,25.33
2023-05-24T11:08:35.447Z,25.30
2023-05-24T11:13:47.928Z,25.31
2023-05-24T11:16:37.509Z,25.29
2023-05-24T11:19:18.852Z,25.29
2023-05-24T11:21:51.612Z,25.28
2023-05-24T11:24:23.929Z,25.26
2023-05-24T11:26:55.331Z,25.23
2023-05-24T11:29:26.289Z,25.19
2023-05-24T11:32:04.202Z,25.19
2023-05-24T11:34:35.756Z,25.22
2023-05-24T11:37:07.853Z,25.24
2023-05-24T11:39:40.113Z,25.25
2023-05-24T11:42:12.018Z,25.26
2023-05-24T11:44:43.255Z,25.27
2023-05-24T11:47:16.205Z,25.28
2023-05-24T11:49:53.096Z,25.23
2023-05-24T11:52:24.238Z,25.14
2023-05-24T11:54:55.622Z,25.08
2023-05-24T11:57:31.596Z,25.06
2023-05-24T12:00:03.063Z,25.05
2023-05-24T12:02:35.988Z,25.04
2023-05-24T12:05:14.647Z,25.01
2023-05-24T12:07:49.082Z,24.96
2023-05-24T12:10:22.893Z,24.91
2023-05-24T12:12:54.203Z,24.90
2023-05-24T12:15:25.806Z,24.91
2023-05-24T12:17:56.936Z,24.93
2023-05-24T12:20:30.761Z,24.91
2023-05-24T12:23:04.012Z,24.92
2023-05-24T12:25:38.552Z,24.95
2023-05-24T12:28:09.535Z,24.98
2023-05-24T12:30:43.554Z,24.96
2023-05-24T12:33:15.877Z,24.93
2023-05-24T12:35:47.694Z,24.92
2023-05-24T12:38:25.941Z,24.87
2023-05-24T12:43:32.658Z,24.61
2023-05-24T12:46:03.862Z,24.52
2023-05-24T12:48:35.441Z,24.51
2023-05-24T12:51:08.230Z,24.52
2023-05-24T12:53:39.370Z,24.55
2023-05-24T12:56:10.887Z,24.42
2023-05-24T12:58:42.646Z,24.29
2023-05-24T13:01:13.994Z,24.24
2023-05-24T13:03:45.263Z,24.20
2023-05-24T13:06:16.616Z,24.15
2023-05-24T13:08:47.738Z,24.11
2023-05-24T13:11:18.781Z,24.08
2023-05-24T13:13:49.893Z,24.08
2023-05-24T13:16:21.789Z,24.11
2023-05-24T13:18:53.256Z,24.09
2023-05-24T13:21:24.596Z,24.11
2023-05-24T13:23:55.467Z,24.17
2023-05-24T13:26:27.289Z,24.24
2023-05-24T13:29:27.822Z,24.30
2023-05-24T13:31:49.291Z,24.36
2023-05-24T13:34:20.829Z,24.41
2023-05-24T13:36:52.732Z,24.47
2023-05-24T13:39:25.115Z,24.50
2023-05-24T13:41:56.454Z,24.52
2023-05-24T13:44:27.833Z,24.53
2023-05-24T13:46:59.963Z,24.53
2023-05-24T13:49:31.764Z,24.52
2023-05-24T13:52:04.003Z,24.49
2023-05-24T13:54:34.960Z,24.50
2023-05-24T13:57:06.758Z,24.53
2023-05-24T13:59:37.744Z,24.59
2023-05-24T14:02:09.441Z,24.63
2023-05-24T14:04:40.496Z,24.62
2023-05-24T14:07:15.843Z,24.58
2023-05-24T14:09:47.503Z,24.55
2023-05-24T14:12:18.984Z,24.54
2023-05-24T14:17:24.464Z,24.53
2023-05-24T14:19:55.617Z,24.55
2023-05-24T14:22:27.524Z,24.58
2023-05-24T14:24:59.713Z,24.59
2023-05-24T14:27:30.828Z,24.58
2023-05-24T14:30:02.089Z,24.57
2023-05-24T14:32:33.505Z,24.57
2023-05-24T14:35:05.198Z,24.52
2023-05-24T14:37:36.155Z,24.50
2023-05-24T14:40:09.368Z,24.50
2023-05-24T14:42:40.624Z,24.53
2023-05-24T14:45:14.097Z,24.55
2023-05-24T14:47:45.089Z,24.58
2023-05-24T14:50:16.131Z,24.57
2023-05-24T14:52:47.393Z,24.57
2023-05-24T14:55:19.276Z,24.57
2023-05-24T14:57:50.474Z,24.56
2023-05-24T15:00:24.544Z,24.55
2023-05-24T15:02:56.706Z,24.53
2023-05-24T15:05:28.075Z,24.54
2023-05-24T15:07:59.289Z,24.53
2023-05-24T15:10:30.733Z,24.52
2023-05-24T15:13:02.125Z,24.51
2023-05-24T15:15:33.243Z,24.49
2023-05-24T15:18:04.341Z,24.45
2023-05-24T15:20:36.934Z,24.41
2023-05-24T15:23:11.234Z,24.40
2023-05-24T15:25:43.076Z,24.40
2023-05-24T15:28:17.116Z,24.39
2023-05-24T15:30:48.989Z,24.37
2023-05-24T15:33:20.351Z,24.34
2023-05-24T15:35:51.491Z,24.32
2023-05-24T15:38:22.942Z,24.31
2023-05-24T15:40:54.405Z,24.30
2023-05-24T15:43:25.629Z,24.28
2023-05-24T15:45:57.117Z,24.28
2023-05-24T15:48:28.134Z,24.29
2023-05-24T15:51:53.792Z,24.29
2023-05-24T15:53:50.897Z,24.26
2023-05-24T15:56:22.267Z,24.22
2023-05-24T15:58:53.479Z,24.19
2023-05-24T16:01:24.702Z,24.17
2023-05-24T16:03:55.766Z,24.17
2023-05-24T16:06:27.013Z,24.15
2023-05-24T16:08:58.402Z,24.12
2023-05-24T16:11:29.518Z,24.08
2023-05-24T16:14:00.489Z,24.05
2023-05-24T16:16:31.980Z,24.01
2023-05-24T16:19:03.337Z,24.00
2023-05-24T16:21:34.595Z,24.01
2023-05-24T16:24:06.234Z,24.02
2023-05-24T16:26:37.208Z,24.04
2023-05-24T16:29:10.705Z,24.04
2023-05-24T16:31:41.893Z,24.05
2023-05-24T16:34:13.971Z,24.03
2023-05-24T16:36:47.213Z,24.00
2023-05-24T16:39:18.529Z,23.99
2023-05-24T16:41:49.577Z,24.01
2023-05-24T16:44:21.022Z,24.00
2023-05-24T16:46:52.085Z,23.98
2023-05-24T16:49:23.825Z,23.96
2023-05-24T16:51:55.094Z,23.94
2023-05-24T16:54:26.148Z,23.92
2023-05-24T16:56:57.545Z,23.89
2023-05-24T16:59:28.832Z,23.87
2023-05-24T17:02:00.131Z,23.84
2023-05-24T17:04:31.295Z,23.82
2023-05-24T17:07:02.362Z,23.79
2023-05-24T17:09:33.591Z,23.76
2023-05-24T17:12:04.998Z,23.74
2023-05-24T17:14:35.889Z,23.75
2023-05-24T17:17:08.957Z,23.76
2023-05-24T17:19:41.767Z,23.77
2023-05-24T17:22:14.028Z,23.78
2023-05-24T17:24:44.989Z,23.79
2023-05-24T17:27:19.900Z,23.78
2023-05-24T17:29:53.188Z,23.75
2023-05-24T17:32:24.341Z,23.73
2023-05-24T17:34:55.882Z,23.69
2023-05-24T17:37:27.259Z,23.64
2023-05-24T17:39:58.559Z,23.57
2023-05-24T17:42:29.706Z,23.51
2023-05-24T17:45:01.020Z,23.44
2023-05-24T17:47:31.902Z,23.37
2023-05-24T17:50:03.327Z,23.31
2023-05-24T17:52:34.208Z,23.27
2023-05-24T17:55:06.331Z,23.21
2023-05-24T17:57:37.582Z,23.14
2023-05-24T18:00:10.390Z,23.09
2023-05-24T18:02:50.328Z,23.06
2023-05-24T18:05:21.421Z,23.03
2023-05-24T18:07:52.526Z,22.99
2023-05-24T18:10:23.557Z,22.95
2023-05-24T18:12:54.884Z,22.93
2023-05-24T18:15:25.818Z,22.92
2023-05-24T18:17:57.270Z,22.92
2023-05-24T18:20:28.222Z,22.92
2023-05-24T18:22:59.465Z,22.92
2023-05-24T18:25:30.809Z,22.91
2023-05-24T18:28:01.697Z,22.88
2023-05-24T18:30:32.528Z,22.86
2023-05-24T18:33:07.782Z,22.86
2023-05-24T18:35:39.925Z,22.85
2023-05-24T18:38:10.719Z,22.85
2023-05-24T18:40:41.656Z,22.85
2023-05-24T18:43:12.861Z,22.88
2023-05-24T18:45:43.951Z,22.91
2023-05-24T18:48:15.934Z,22.92
2023-05-24T18:50:48.173Z,22.97
2023-05-24T18:53:19.059Z,23.04
2023-05-24T18:55:50.284Z,23.09
2023-05-24T18:58:21.306Z,23.13
2023-05-24T19:00:52.177Z,23.15
2023-05-24T19:03:23.546Z,23.18
2023-05-24T19:05:54.381Z,23.19
2023-05-24T19:08:25.570Z,23.18
2023-05-24T19:10:56.568Z,23.18
2023-05-24T19:13:27.867Z,23.16
2023-05-24T19:16:00.746Z,23.17
2023-05-24T19:18:32.095Z,23.20
2023-05-24T19:21:03.121Z,23.21
2023-05-24T19:23:34.264Z,23.22
2023-05-24T19:26:05.215Z,23.22
2023-05-24T19:28:40.273Z,23.22
2023-05-24T19:31:11.409Z,23.22
2023-05-24T19:33:55.992Z,23.20
2023-05-24T19:36:33.124Z,23.18
2023-05-24T19:39:04.812Z,23.17
2023-05-24T19:41:35.889Z,23.15
2023-05-24T19:44:07.062Z,23.14
2023-05-24T19:46:38.132Z,23.14
2023-05-24T19:49:09.670Z,23.13
2023-05-24T19:51:40.542Z,23.11
2023-05-24T19:54:13.085Z,23.09
2023-05-24T19:56:44.347Z,23.08
2023-05-24T19:59:16.176Z,23.07
2023-05-24T20:01:47.126Z,23.04
2023-05-24T20:04:18.856Z,23.04
2023-05-24T20:06:49.907Z,23.09
2023-05-24T20:09:21.300Z,23.13
2023-05-24T20:11:52.640Z,23.15
2023-05-24T20:14:23.935Z,23.16
2023-05-24T20:16:55.035Z,23.20
2023-05-24T20:19:29.067Z,23.26
2023-05-24T20:22:00.290Z,23.31
2023-05-24T20:24:31.161Z,23.32
2023-05-24T20:27:02.570Z,23.32
2023-05-24T20:29:33.670Z,23.32
2023-05-24T20:32:04.824Z,23.33
2023-05-24T20:34:36.135Z,23.33
2023-05-24T20:37:07.695Z,23.36
2023-05-24T20:39:38.543Z,23.39
2023-05-24T20:42:09.760Z,23.42
2023-05-24T20:44:40.749Z,23.45
2023-05-24T20:47:12.051Z,23.51
2023-05-24T20:49:43.085Z,23.53
2023-05-24T20:52:14.493Z,23.56
2023-05-24T20:54:45.530Z,23.59
2023-05-24T20:57:17.196Z,23.62
2023-05-24T20:59:48.332Z,23.68
2023-05-24T21:02:19.602Z,23.74
2023-05-24T21:04:50.643Z,23.75
2023-05-24T21:07:21.541Z,23.72
2023-05-24T21:09:52.484Z,23.69
2023-05-24T21:12:23.925Z,23.64
2023-05-24T21:14:54.956Z,23.56
2023-05-24T21:17:25.944Z,23.50
2023-05-24T21:19:56.980Z,23.45
2023-05-24T21:22:28.228Z,23.42
2023-05-24T21:24:59.339Z,23.40
2023-05-24T21:27:30.271Z,23.37
2023-05-24T21:30:01.216Z,23.34
2023-05-24T21:32:32.040Z,23.28
2023-05-24T21:35:03.105Z,23.16
2023-05-24T21:37:33.969Z,23.00
2023-05-24T21:40:05.663Z,22.81
2023-05-24T21:42:37.244Z,22.58
2023-05-24T21:45:09.860Z,22.46
2023-05-24T21:47:40.938Z,22.44
2023-05-24T21:50:13.170Z,22.42
2023-05-24T21:52:44.223Z,22.38
2023-05-24T21:55:15.111Z,22.29
2023-05-24T21:57:46.037Z,22.19
2023-05-24T22:00:20.075Z,22.15
2023-05-24T22:02:51.307Z,22.19
2023-05-24T22:05:22.593Z,22.27
2023-05-24T22:07:53.712Z,22.39
2023-05-24T22:10:25.043Z,22.50
2023-05-24T22:12:56.094Z,22.57
2023-05-24T22:15:28.398Z,22.61
2023-05-24T22:18:02.347Z,22.65
2023-05-24T22:20:33.689Z,22.68
2023-05-24T22:23:05.419Z,22.71
2023-05-24T22:25:36.364Z,22.72
2023-05-24T22:28:09.530Z,22.72
2023-05-24T22:30:41.773Z,22.70
2023-05-24T22:33:14.530Z,22.69
2023-05-24T22:35:46.036Z,22.67
2023-05-24T22:38:17.159Z,22.65
2023-05-24T22:40:48.110Z,22.65
2023-05-24T22:43:19.465Z,22.64
2023-05-24T22:45:50.258Z,22.63
2023-05-24T22:48:22.278Z,22.62
2023-05-24T22:50:53.572Z,22.59
2023-05-24T22:53:24.507Z,22.58
2023-05-24T22:55:56.216Z,22.57
2023-05-24T22:58:27.240Z,22.57
2023-05-24T23:00:58.549Z,22.56
2023-05-24T23:03:29.586Z,22.55
2023-05-24T23:06:04.706Z,22.55
2023-05-24T23:08:36.101Z,22.54
2023-05-24T23:11:10.633Z,22.53
2023-05-24T23:13:42.437Z,22.51
2023-05-24T23:16:18.120Z,22.51
2023-05-24T23:18:49.066Z,22.50
2023-05-24T23:21:22.593Z,22.46
2023-05-24T23:23:54.079Z,22.43
2023-05-24T23:26:25.959Z,22.41
2023-05-24T23:28:57.070Z,22.38
2023-05-24T23:31:28.440Z,22.36
2023-05-24T23:34:00.317Z,22.34
2023-05-24T23:36:31.369Z,22.30
2023-05-24T23:39:02.463Z,22.29
2023-05-24T23:41:33.765Z,22.28
2023-05-24T23:44:04.681Z,22.27
2023-05-24T23:46:36.342Z,22.25
2023-05-24T23:49:07.698Z,22.24
2023-05-24T23:51:38.684Z,22.23
2023-05-24T23:54:09.986Z,22.22
2023-05-24T23:56:41.346Z,22.22
2023-05-24T23:59:12.951Z,22.22
